Terminal Aerodrome Forecast
Issued by NWS

Home | Current Version | Previous Version | Text Only | Print | Product List | Glossary Off
Versions: 1 2 3 4 5 6 7 8 9 10 11 12 13 14 15 16 17 18 19 20 21

000
FTUS43 KGRB 250402 AAB
TAFAUW
TAF AMD
KAUW 250402Z 2504/2524 29010G20KT P6SM SCT019 BKN035
      TEMPO 2504/2506 BKN020
     FM250600 29011G20KT P6SM SCT020 BKN080
     FM251400 30010G18KT P6SM BKN020
     FM252000 30009KT P6SM SCT025=

USA.gov is the U.S. government's official web portal to all federal, state and local government web resources and services.